createdAt,value
2022-11-28T00:00:14.128Z,9.418346
2022-11-28T00:01:14.125Z,9.418378
2022-11-28T00:02:14.223Z,9.418411
2022-11-28T00:03:14.200Z,9.418344
2022-11-28T00:04:14.100Z,9.418387
2022-11-28T00:05:14.092Z,9.418564
2022-11-28T00:06:14.171Z,9.418508
2022-11-28T00:07:14.118Z,9.418444
2022-11-28T00:08:14.074Z,9.418517
2022-11-28T00:09:14.052Z,9.418521
2022-11-28T00:10:14.052Z,9.418352
2022-11-28T00:11:14.051Z,9.418422
2022-11-28T00:12:14.060Z,9.418354
2022-11-28T00:13:14.032Z,9.418415
2022-11-28T00:14:14.024Z,9.418352
2022-11-28T00:15:14.016Z,9.418480
2022-11-28T00:16:14.058Z,9.418482
2022-11-28T00:17:14.022Z,9.418336
2022-11-28T00:18:13.999Z,9.418456
2022-11-28T00:19:13.992Z,9.418496
2022-11-28T00:20:13.983Z,9.418469
2022-11-28T00:21:13.977Z,9.418377
2022-11-28T00:22:14.067Z,9.418308
2022-11-28T00:23:13.968Z,9.418357
2022-11-28T00:24:13.976Z,9.418374
2022-11-28T00:25:13.952Z,9.418372
2022-11-28T00:26:13.952Z,9.418431
2022-11-28T00:27:13.951Z,9.418353
2022-11-28T00:28:13.934Z,9.418334
2022-11-28T00:29:13.923Z,9.418313
2022-11-28T00:30:13.924Z,9.418412
2022-11-28T00:31:14.014Z,9.418392
2022-11-28T00:32:13.986Z,9.418327
2022-11-28T00:33:13.896Z,9.418251
2022-11-28T00:34:13.896Z,9.418429
2022-11-28T00:35:13.885Z,9.418365
2022-11-28T00:36:13.900Z,9.418333
2022-11-28T00:37:13.876Z,9.418337
2022-11-28T00:38:14.413Z,9.418339
2022-11-28T00:39:13.863Z,9.418337
2022-11-28T00:40:13.854Z,9.418349
2022-11-28T00:41:13.857Z,9.418292
2022-11-28T00:42:13.868Z,9.418346
2022-11-28T00:43:13.836Z,9.418328
2022-11-28T00:44:13.824Z,9.418311
2022-11-28T00:45:14.695Z,9.418364
2022-11-28T00:46:13.936Z,9.418317
2022-11-28T00:47:13.815Z,9.418259
2022-11-28T00:48:13.810Z,9.418292
2022-11-28T00:49:13.815Z,9.418238
2022-11-28T00:50:13.791Z,9.418219
2022-11-28T00:51:13.784Z,9.418278
2022-11-28T00:52:13.796Z,9.418271
2022-11-28T00:53:13.797Z,9.418307
2022-11-28T00:54:13.868Z,9.418315
2022-11-28T00:55:13.773Z,9.418306
2022-11-28T00:56:13.753Z,9.418276
2022-11-28T00:57:13.736Z,9.418268
2022-11-28T00:58:13.744Z,9.418299
2022-11-28T00:59:13.748Z,9.418302
2022-11-28T01:00:13.732Z,9.418421
2022-11-28T01:01:13.839Z,9.418318
2022-11-28T01:02:13.779Z,9.418310
2022-11-28T01:03:13.703Z,9.418260
2022-11-28T01:04:13.700Z,9.418230
2022-11-28T01:05:13.700Z,9.418185
2022-11-28T01:06:13.684Z,9.418200
2022-11-28T01:07:13.729Z,9.418311
2022-11-28T01:08:13.685Z,9.418081
2022-11-28T01:09:13.671Z,9.418187
2022-11-28T01:10:13.756Z,9.418195
2022-11-28T01:11:13.660Z,9.418200
2022-11-28T01:12:13.644Z,9.418114
2022-11-28T01:13:13.655Z,9.418063
2022-11-28T01:14:13.643Z,9.418074
2022-11-28T01:15:13.624Z,9.418067
2022-11-28T01:16:13.653Z,9.418200
2022-11-28T01:17:13.625Z,9.418217
2022-11-28T01:18:13.620Z,9.418216
2022-11-28T01:19:13.595Z,9.418371
2022-11-28T01:20:13.596Z,9.418239
2022-11-28T01:21:13.583Z,9.418247
2022-11-28T01:22:13.596Z,9.418230
2022-11-28T01:23:13.588Z,9.418219
2022-11-28T01:24:13.562Z,9.418204
2022-11-28T01:25:13.557Z,9.418202
2022-11-28T01:26:13.641Z,9.418200
2022-11-28T01:27:13.588Z,9.418246
2022-11-28T01:28:13.537Z,9.418328
2022-11-28T01:29:13.547Z,9.418278
2022-11-28T01:30:13.523Z,9.418238
2022-11-28T01:31:13.607Z,9.418215
2022-11-28T01:32:13.515Z,9.418270
2022-11-28T01:33:13.508Z,9.418260
2022-11-28T01:34:13.536Z,9.418289
2022-11-28T01:35:13.489Z,9.418263
2022-11-28T01:36:13.485Z,9.418263
2022-11-28T01:37:13.484Z,9.418358
2022-11-28T01:38:13.472Z,9.418314
2022-11-28T01:39:13.479Z,9.418215
2022-11-28T01:40:13.525Z,9.418227
2022-11-28T01:41:13.451Z,9.418301
2022-11-28T01:42:13.532Z,9.418236
2022-11-28T01:43:13.443Z,9.418282
2022-11-28T01:44:13.427Z,9.418412
2022-11-28T01:45:13.420Z,9.418457
2022-11-28T01:46:13.526Z,9.418398
2022-11-28T01:47:13.465Z,9.418420
2022-11-28T01:48:13.400Z,9.418420
2022-11-28T01:49:13.396Z,9.418463
2022-11-28T01:50:13.403Z,9.418447
2022-11-28T01:51:13.379Z,9.418495
2022-11-28T01:52:13.371Z,9.418368
2022-11-28T01:53:13.379Z,9.418303
2022-11-28T01:54:13.359Z,9.418288
2022-11-28T01:55:13.357Z,9.418305
2022-11-28T01:56:13.344Z,9.418300
2022-11-28T01:57:13.340Z,9.418387
2022-11-28T01:58:13.436Z,9.418301
2022-11-28T01:59:13.344Z,9.418468
2022-11-28T02:00:13.343Z,9.418444
2022-11-28T02:01:13.408Z,9.418490
2022-11-28T02:02:13.411Z,9.418459
2022-11-28T02:03:14.169Z,9.418416
2022-11-28T02:04:13.292Z,9.418344
2022-11-28T02:05:13.322Z,9.418227
2022-11-28T02:06:13.320Z,9.418233
2022-11-28T02:07:13.329Z,9.418472
2022-11-28T02:08:13.285Z,9.418505
2022-11-28T02:09:13.255Z,9.418398
2022-11-28T02:10:13.255Z,9.418303
2022-11-28T02:11:13.241Z,9.418297
2022-11-28T02:12:13.240Z,9.418265
2022-11-28T02:13:13.244Z,9.418195
2022-11-28T02:14:13.321Z,9.418366
2022-11-28T02:15:13.224Z,9.418413
2022-11-28T02:16:13.259Z,9.418489
2022-11-28T02:17:13.232Z,9.418439
2022-11-28T02:18:13.237Z,9.418427
2022-11-28T02:19:13.212Z,9.418346
2022-11-28T02:20:13.187Z,9.418466
2022-11-28T02:21:13.216Z,9.418323
2022-11-28T02:22:13.191Z,9.418320
2022-11-28T02:23:13.171Z,9.418324
2022-11-28T02:24:13.176Z,9.418341
2022-11-28T02:25:13.168Z,9.418317
2022-11-28T02:26:13.151Z,9.418345
2022-11-28T02:27:13.144Z,9.418425
2022-11-28T02:28:13.143Z,9.418352
2022-11-28T02:29:13.133Z,9.418392
2022-11-28T02:30:13.244Z,9.418270
2022-11-28T02:31:13.198Z,9.418269
2022-11-28T02:32:13.111Z,9.418247
2022-11-28T02:33:13.105Z,9.418285
2022-11-28T02:34:13.098Z,9.418310
2022-11-28T02:35:13.166Z,9.418302
2022-11-28T02:36:13.079Z,9.418311
2022-11-28T02:37:13.071Z,9.418305
2022-11-28T02:38:13.075Z,9.418266
2022-11-28T02:39:13.059Z,9.418250
2022-11-28T02:40:13.070Z,9.418230
2022-11-28T02:41:13.060Z,9.418240
2022-11-28T02:42:13.051Z,9.418252
2022-11-28T02:43:13.047Z,9.418216
2022-11-28T02:44:13.031Z,9.418268
2022-11-28T02:45:13.007Z,9.418180
2022-11-28T02:46:13.307Z,9.418281
2022-11-28T02:47:13.091Z,9.418198
2022-11-28T02:48:13.007Z,9.418253
2022-11-28T02:49:12.986Z,9.418280
2022-11-28T02:50:12.995Z,9.418319
2022-11-28T02:51:12.967Z,9.418239
2022-11-28T02:52:12.966Z,9.418252
2022-11-28T02:53:12.963Z,9.418264
2022-11-28T02:54:12.964Z,9.418234
2022-11-28T02:55:12.947Z,9.418205
2022-11-28T02:56:12.946Z,9.418261
2022-11-28T02:57:12.940Z,9.418254
2022-11-28T02:58:12.919Z,9.418264
2022-11-28T02:59:12.940Z,9.418309
2022-11-28T03:00:17.667Z,9.418233
2022-11-28T03:01:14.981Z,9.418180
2022-11-28T03:02:13.051Z,9.418255
2022-11-28T03:03:12.899Z,9.418295
2022-11-28T03:04:12.885Z,9.418293
2022-11-28T03:05:12.904Z,9.418230
2022-11-28T03:06:12.870Z,9.418239
2022-11-28T03:07:12.882Z,9.418265
2022-11-28T03:08:12.864Z,9.418234
2022-11-28T03:09:12.860Z,9.418175
2022-11-28T03:10:12.862Z,9.418153
2022-11-28T03:11:12.840Z,9.418239
2022-11-28T03:12:12.835Z,9.418151
2022-11-28T03:13:12.820Z,9.418259
2022-11-28T03:14:12.824Z,9.418163
2022-11-28T03:15:12.814Z,9.418251
2022-11-28T03:16:12.911Z,9.418231
2022-11-28T03:17:12.805Z,9.418277
2022-11-28T03:18:12.886Z,9.418303
2022-11-28T03:19:12.778Z,9.418387
2022-11-28T03:20:12.798Z,9.418503
2022-11-28T03:21:12.775Z,9.418457
2022-11-28T03:22:12.770Z,9.418262
2022-11-28T03:23:12.758Z,9.418441
2022-11-28T03:24:12.756Z,9.418310
2022-11-28T03:25:12.771Z,9.418251
2022-11-28T03:26:12.743Z,9.418321
2022-11-28T03:27:13.647Z,9.418305
2022-11-28T03:28:12.730Z,9.418262
2022-11-28T03:29:12.712Z,9.418264
2022-11-28T03:30:12.717Z,9.418354
2022-11-28T03:31:12.765Z,9.418387
2022-11-28T03:32:12.706Z,9.418460
2022-11-28T03:33:12.690Z,9.418611
2022-11-28T03:34:12.778Z,9.418870
2022-11-28T03:35:12.688Z,9.418550
2022-11-28T03:36:12.667Z,9.418534
2022-11-28T03:37:12.674Z,9.418542
2022-11-28T03:38:12.679Z,9.418293
2022-11-28T03:39:12.653Z,9.418353
2022-11-28T03:40:12.646Z,9.418273
2022-11-28T03:41:12.631Z,9.418245
2022-11-28T03:42:12.635Z,9.418314
2022-11-28T03:43:12.634Z,9.418313
2022-11-28T03:44:12.617Z,9.418273
2022-11-28T03:45:12.611Z,9.418323
2022-11-28T03:46:12.615Z,9.418376
2022-11-28T03:47:12.646Z,9.418325
2022-11-28T03:48:12.586Z,9.418418
2022-11-28T03:49:12.586Z,9.418387
2022-11-28T03:50:12.685Z,9.418385
2022-11-28T03:51:12.572Z,9.418278
2022-11-28T03:52:12.559Z,9.418318
2022-11-28T03:53:12.543Z,9.418271
2022-11-28T03:54:12.546Z,9.418202
2022-11-28T03:55:12.574Z,9.418211
2022-11-28T03:56:12.665Z,9.418281
2022-11-28T03:57:12.537Z,9.418340
2022-11-28T03:58:12.510Z,9.418195
2022-11-28T03:59:12.506Z,9.418396
2022-11-28T04:00:12.506Z,9.418197
2022-11-28T04:01:12.616Z,9.418333
2022-11-28T04:02:12.491Z,9.418288
2022-11-28T04:03:12.561Z,9.418315
2022-11-28T04:04:12.486Z,9.418222
2022-11-28T04:05:12.470Z,9.418349
2022-11-28T04:06:12.569Z,9.418219
2022-11-28T04:07:12.602Z,9.418186
2022-11-28T04:08:12.454Z,9.418373
2022-11-28T04:09:14.517Z,9.418297
2022-11-28T04:10:13.437Z,9.418338
2022-11-28T04:11:12.438Z,9.418242
2022-11-28T04:12:12.423Z,9.418224
2022-11-28T04:13:12.417Z,9.418202
2022-11-28T04:14:12.419Z,9.418212
2022-11-28T04:15:12.479Z,9.418215
2022-11-28T04:16:12.454Z,9.418121
2022-11-28T04:17:12.386Z,9.418292
2022-11-28T04:18:12.381Z,9.418268
2022-11-28T04:19:12.377Z,9.418127
2022-11-28T04:20:12.387Z,9.418043
2022-11-28T04:21:12.360Z,9.417949
2022-11-28T04:22:12.452Z,9.418195
2022-11-28T04:23:12.350Z,9.418149
2022-11-28T04:24:12.342Z,9.418470
2022-11-28T04:25:12.329Z,9.418267
2022-11-28T04:26:12.322Z,9.418285
2022-11-28T04:27:12.339Z,9.418348
2022-11-28T04:28:12.311Z,9.418373
2022-11-28T04:29:12.306Z,9.418359
2022-11-28T04:30:12.340Z,9.418366
2022-11-28T04:31:12.373Z,9.418255
2022-11-28T04:32:12.322Z,9.418416
2022-11-28T04:33:12.334Z,9.418402
2022-11-28T04:34:12.266Z,9.418326
2022-11-28T04:35:12.267Z,9.418197
2022-11-28T04:36:12.253Z,9.418270
2022-11-28T04:37:12.254Z,9.418265
2022-11-28T04:38:12.406Z,9.418513
2022-11-28T04:39:12.234Z,9.418645
2022-11-28T04:40:12.246Z,9.418405
2022-11-28T04:41:12.220Z,9.418478
2022-11-28T04:42:12.217Z,9.418261
2022-11-28T04:43:12.226Z,9.418212
2022-11-28T04:44:12.202Z,9.418315
2022-11-28T04:45:12.202Z,9.418314
2022-11-28T04:46:12.229Z,9.418266
2022-11-28T04:47:12.210Z,9.418311
2022-11-28T04:48:12.218Z,9.418367
2022-11-28T04:49:12.153Z,9.418318
2022-11-28T04:50:12.152Z,9.418232
2022-11-28T04:51:12.170Z,9.418364
2022-11-28T04:52:12.135Z,9.418349
2022-11-28T04:53:12.127Z,9.418368
2022-11-28T04:54:12.224Z,9.418358
2022-11-28T04:55:12.120Z,9.418321
2022-11-28T04:56:12.121Z,9.418270
2022-11-28T04:57:12.095Z,9.418284
2022-11-28T04:58:12.098Z,9.418417
2022-11-28T04:59:12.091Z,9.418436
2022-11-28T05:00:12.082Z,9.418370
2022-11-28T05:01:12.174Z,9.418260
2022-11-28T05:02:12.147Z,9.418273
2022-11-28T05:03:12.073Z,9.418171
2022-11-28T05:04:12.078Z,9.418202
2022-11-28T05:05:12.053Z,9.418208
2022-11-28T05:06:12.043Z,9.417873
2022-11-28T05:07:12.051Z,9.418184
2022-11-28T05:08:12.031Z,9.418144
2022-11-28T05:09:12.026Z,9.418161
2022-11-28T05:10:12.116Z,9.418174
2022-11-28T05:11:12.018Z,9.418212
2022-11-28T05:12:12.029Z,9.418212
2022-11-28T05:13:12.001Z,9.418226
2022-11-28T05:14:11.986Z,9.418154
2022-11-28T05:15:11.982Z,9.418255
2022-11-28T05:16:11.990Z,9.418268
2022-11-28T05:17:11.984Z,9.418367
2022-11-28T05:18:11.973Z,9.418293
2022-11-28T05:19:11.958Z,9.418260
2022-11-28T05:20:11.952Z,9.418194
2022-11-28T05:21:11.954Z,9.418167
2022-11-28T05:22:11.944Z,9.418139
2022-11-28T05:23:11.949Z,9.418249
2022-11-28T05:24:11.935Z,9.418406
2022-11-28T05:25:11.917Z,9.418542
2022-11-28T05:26:12.014Z,9.418386
2022-11-28T05:27:11.914Z,9.418313
2022-11-28T05:28:11.914Z,9.418314
2022-11-28T05:29:11.901Z,9.418260
2022-11-28T05:30:11.894Z,9.418324
2022-11-28T05:31:11.977Z,9.418288
2022-11-28T05:32:11.875Z,9.418316
2022-11-28T05:33:11.882Z,9.418202
2022-11-28T05:34:11.867Z,9.418249
2022-11-28T05:35:11.862Z,9.418174
2022-11-28T05:36:13.374Z,9.418268
2022-11-28T05:37:12.850Z,9.418292
2022-11-28T05:38:13.723Z,9.418356
2022-11-28T05:39:11.836Z,9.418304
2022-11-28T05:40:11.821Z,9.418292
2022-11-28T05:41:11.831Z,9.418437
2022-11-28T05:42:11.905Z,9.418382
2022-11-28T05:43:11.819Z,9.418214
2022-11-28T05:44:11.801Z,9.418350
2022-11-28T05:45:11.803Z,9.418503
2022-11-28T05:46:11.833Z,9.418451
2022-11-28T05:47:11.771Z,9.418395
2022-11-28T05:48:11.774Z,9.418389
2022-11-28T05:49:11.761Z,9.418367
2022-11-28T05:50:11.788Z,9.418347
2022-11-28T05:51:11.760Z,9.418372
2022-11-28T05:52:11.785Z,9.418472
2022-11-28T05:53:11.731Z,9.418375
2022-11-28T05:54:11.741Z,9.418337
2022-11-28T05:55:11.734Z,9.418221
2022-11-28T05:56:11.785Z,9.418114
2022-11-28T05:57:11.713Z,9.418165
2022-11-28T05:58:11.793Z,9.418306
2022-11-28T05:59:11.710Z,9.418310
2022-11-28T06:00:11.687Z,9.418260
2022-11-28T06:01:11.681Z,9.418352
2022-11-28T06:02:11.732Z,9.418370
2022-11-28T06:03:11.682Z,9.418285
2022-11-28T06:04:11.696Z,9.418258
2022-11-28T06:05:35.104Z,9.418285
2022-11-28T06:06:13.658Z,9.418211
2022-11-28T06:07:11.637Z,9.418243
2022-11-28T06:08:11.631Z,9.418225
2022-11-28T06:09:11.638Z,9.418236
2022-11-28T06:10:11.634Z,9.418463
2022-11-28T06:11:11.623Z,9.418422
2022-11-28T06:12:11.605Z,9.418422
2022-11-28T06:13:11.597Z,9.418330
2022-11-28T06:14:11.686Z,9.418337
2022-11-28T06:15:11.586Z,9.418231
2022-11-28T06:16:11.689Z,9.418266
2022-11-28T06:17:11.566Z,9.418213
2022-11-28T06:18:11.565Z,9.418320
2022-11-28T06:19:11.561Z,9.418512
2022-11-28T06:20:11.550Z,9.418273
2022-11-28T06:21:11.572Z,9.418331
2022-11-28T06:22:11.545Z,9.418313
2022-11-28T06:23:11.530Z,9.418311
2022-11-28T06:24:11.523Z,9.418291
2022-11-28T06:25:11.521Z,9.418227
2022-11-28T06:26:11.505Z,9.418179
2022-11-28T06:27:12.521Z,9.418223
2022-11-28T06:28:11.501Z,9.418121
2022-11-28T06:29:11.496Z,9.418176
2022-11-28T06:30:11.572Z,9.418183
2022-11-28T06:31:11.529Z,9.418406
2022-11-28T06:32:11.542Z,9.418296
2022-11-28T06:33:11.465Z,9.418369
2022-11-28T06:34:11.453Z,9.418303
2022-11-28T06:35:11.462Z,9.418283
2022-11-28T06:36:11.453Z,9.418203
2022-11-28T06:37:11.461Z,9.418242
2022-11-28T06:38:14.253Z,9.418235
2022-11-28T06:39:12.433Z,9.418390
2022-11-28T06:40:11.433Z,9.418422
2022-11-28T06:41:11.425Z,9.418310
2022-11-28T06:42:11.410Z,9.418150
2022-11-28T06:43:11.409Z,9.418253
2022-11-28T06:44:11.410Z,9.418142
2022-11-28T06:45:11.400Z,9.418017
2022-11-28T06:46:15.720Z,9.417996
2022-11-28T06:47:12.386Z,9.418045
2022-11-28T06:48:11.373Z,9.418138
2022-11-28T06:49:11.370Z,9.418228
2022-11-28T06:50:11.371Z,9.417947
2022-11-28T06:51:11.353Z,9.418093
2022-11-28T06:52:11.364Z,9.418165
2022-11-28T06:53:11.333Z,9.418095
2022-11-28T06:54:11.341Z,9.418116
2022-11-28T06:55:11.365Z,9.418056
2022-11-28T06:56:11.346Z,9.418122
2022-11-28T06:57:11.328Z,9.418110
2022-11-28T06:58:12.115Z,9.418133
2022-11-28T06:59:11.306Z,9.418113
2022-11-28T07:00:11.323Z,9.418125
2022-11-28T07:01:11.337Z,9.418156
2022-11-28T07:02:11.476Z,9.418098
2022-11-28T07:03:11.282Z,9.418138
2022-11-28T07:04:11.267Z,9.418165
2022-11-28T07:05:11.252Z,9.418169
2022-11-28T07:06:11.262Z,9.418254
2022-11-28T07:07:16.090Z,9.418333
2022-11-28T07:08:13.291Z,9.418295
2022-11-28T07:09:11.233Z,9.418272
2022-11-28T07:10:11.232Z,9.418302
2022-11-28T07:11:11.254Z,9.418283
2022-11-28T07:12:11.259Z,9.418187
2022-11-28T07:13:11.281Z,9.418268
2022-11-28T07:14:11.265Z,9.418226
2022-11-28T07:15:11.194Z,9.418178
2022-11-28T07:16:11.217Z,9.418200
2022-11-28T07:17:11.177Z,9.418244
2022-11-28T07:18:11.287Z,9.418321
2022-11-28T07:19:11.189Z,9.418256
2022-11-28T07:20:11.163Z,9.418248
2022-11-28T07:21:11.228Z,9.418271
2022-11-28T07:22:11.160Z,9.418371
2022-11-28T07:23:11.137Z,9.418338
2022-11-28T07:24:11.143Z,9.418127
2022-11-28T07:25:11.136Z,9.418158
2022-11-28T07:26:11.117Z,9.418164
2022-11-28T07:27:11.126Z,9.418324
2022-11-28T07:28:11.110Z,9.418129
2022-11-28T07:29:11.093Z,9.418367
2022-11-28T07:30:11.148Z,9.418176
2022-11-28T07:31:11.099Z,9.418234
2022-11-28T07:32:11.176Z,9.418079
2022-11-28T07:33:11.078Z,9.418379
2022-11-28T07:34:11.165Z,9.418224
2022-11-28T07:35:11.058Z,9.418221
2022-11-28T07:36:11.109Z,9.418234
2022-11-28T07:37:11.077Z,9.418325
2022-11-28T07:38:11.040Z,9.418252
2022-11-28T07:39:11.037Z,9.418303
2022-11-28T07:40:11.031Z,9.418363
2022-11-28T07:41:11.113Z,9.418289
2022-11-28T07:42:11.049Z,9.418470
2022-11-28T07:43:11.012Z,9.418619
2022-11-28T07:44:11.003Z,9.418536
2022-11-28T07:45:11.007Z,9.418482
2022-11-28T07:46:11.057Z,9.418355
2022-11-28T07:47:11.002Z,9.418165
2022-11-28T07:48:10.999Z,9.418132
2022-11-28T07:49:10.969Z,9.418271
2022-11-28T07:50:10.985Z,9.418298
2022-11-28T07:51:10.968Z,9.418188
2022-11-28T07:52:10.957Z,9.418181
2022-11-28T07:53:10.949Z,9.418241
2022-11-28T07:54:10.949Z,9.418332
2022-11-28T07:55:10.931Z,9.418633
2022-11-28T07:56:10.921Z,9.418534
2022-11-28T07:57:12.764Z,9.418347
2022-11-28T07:58:11.915Z,9.418335
2022-11-28T07:59:10.922Z,9.417423
2022-11-28T08:00:10.895Z,9.417694
2022-11-28T08:01:10.902Z,9.417960
2022-11-28T08:02:10.963Z,9.417994
2022-11-28T08:03:10.873Z,9.417991
2022-11-28T08:04:10.940Z,9.418097
2022-11-28T08:05:10.935Z,9.418264
2022-11-28T08:06:10.851Z,9.418438
2022-11-28T08:07:10.842Z,9.418326
2022-11-28T08:08:10.841Z,9.418192
2022-11-28T08:09:10.849Z,9.418091
2022-11-28T08:10:10.823Z,9.418177
2022-11-28T08:11:10.821Z,9.418182
2022-11-28T08:12:10.943Z,9.418251
2022-11-28T08:13:10.801Z,9.418392
2022-11-28T08:14:10.802Z,9.418415
2022-11-28T08:15:10.801Z,9.418191
2022-11-28T08:16:10.846Z,9.417999
2022-11-28T08:17:10.780Z,9.417994
2022-11-28T08:18:10.770Z,9.418054
2022-11-28T08:19:10.759Z,9.418100
2022-11-28T08:20:10.757Z,9.418322
2022-11-28T08:21:10.761Z,9.418295
2022-11-28T08:22:10.770Z,9.418371
2022-11-28T08:23:10.725Z,9.418339
2022-11-28T08:24:10.749Z,9.418366
2022-11-28T08:25:10.720Z,9.418395
2022-11-28T08:26:10.722Z,9.418443
2022-11-28T08:27:10.756Z,9.418357
2022-11-28T08:28:10.708Z,9.418312
2022-11-28T08:29:10.704Z,9.418197
2022-11-28T08:30:10.693Z,9.418255
2022-11-28T08:31:10.817Z,9.418354
2022-11-28T08:32:10.686Z,9.418367
2022-11-28T08:33:10.685Z,9.418398
2022-11-28T08:34:10.659Z,9.418376
2022-11-28T08:35:10.657Z,9.418354
2022-11-28T08:36:10.641Z,9.418330
2022-11-28T08:37:10.645Z,9.418318
2022-11-28T08:38:10.845Z,9.418352
2022-11-28T08:39:25.959Z,9.418286
2022-11-28T08:40:12.629Z,9.418298
2022-11-28T08:41:10.613Z,9.418306
2022-11-28T08:42:10.601Z,9.418324
2022-11-28T08:43:10.603Z,9.418289
2022-11-28T08:44:10.610Z,9.418296
2022-11-28T08:45:10.593Z,9.418287
2022-11-28T08:46:10.627Z,9.418202
2022-11-28T08:47:10.578Z,9.418263
2022-11-28T08:48:10.574Z,9.418260
2022-11-28T08:49:10.588Z,9.418292
2022-11-28T08:50:10.561Z,9.418303
2022-11-28T08:51:10.551Z,9.418338
2022-11-28T08:52:10.546Z,9.418298
2022-11-28T08:53:10.546Z,9.418230
2022-11-28T08:54:10.565Z,9.418307
2022-11-28T08:55:10.521Z,9.418224
2022-11-28T08:56:10.512Z,9.418248
2022-11-28T08:57:11.513Z,9.418258
2022-11-28T08:58:10.502Z,9.418178
2022-11-28T08:59:10.497Z,9.418231
2022-11-28T09:00:10.493Z,9.418197
2022-11-28T09:01:10.598Z,9.418179
2022-11-28T09:02:10.481Z,9.418120
2022-11-28T09:03:10.477Z,9.418148
2022-11-28T09:04:10.514Z,9.418114
2022-11-28T09:05:10.466Z,9.418235
2022-11-28T09:06:10.477Z,9.418203
2022-11-28T09:07:10.445Z,9.418263
2022-11-28T09:08:12.002Z,9.418222
2022-11-28T09:09:11.425Z,9.418138
2022-11-28T09:10:10.429Z,9.418159
2022-11-28T09:11:10.430Z,9.418261
2022-11-28T09:12:10.444Z,9.418213
2022-11-28T09:13:10.405Z,9.418245
2022-11-28T09:14:10.396Z,9.418168
2022-11-28T09:15:10.388Z,9.418118
2022-11-28T09:16:10.384Z,9.418140
2022-11-28T09:17:10.415Z,9.418134
2022-11-28T09:18:10.377Z,9.418164
2022-11-28T09:19:10.397Z,9.418249
2022-11-28T09:20:10.377Z,9.418216
2022-11-28T09:21:10.354Z,9.418473
2022-11-28T09:22:10.368Z,9.418530
2022-11-28T09:23:10.381Z,9.418357
2022-11-28T09:24:10.358Z,9.418335
2022-11-28T09:25:10.453Z,9.418331
2022-11-28T09:26:10.320Z,9.418303
2022-11-28T09:27:10.323Z,9.418161
2022-11-28T09:28:10.321Z,9.418291
2022-11-28T09:29:10.349Z,9.418166
2022-11-28T09:30:10.307Z,9.418290
2022-11-28T09:31:10.378Z,9.418278
2022-11-28T09:32:10.276Z,9.418341
2022-11-28T09:33:10.292Z,9.418355
2022-11-28T09:34:10.273Z,9.418304
2022-11-28T09:35:10.291Z,9.418531
2022-11-28T09:36:10.260Z,9.418446
2022-11-28T09:37:10.256Z,9.418411
2022-11-28T09:38:10.244Z,9.418489
2022-11-28T09:39:10.274Z,9.418402
2022-11-28T09:40:14.025Z,9.418418
2022-11-28T09:41:10.229Z,9.418261
2022-11-28T09:42:10.249Z,9.418290
2022-11-28T09:43:10.213Z,9.418288
2022-11-28T09:44:10.221Z,9.418342
2022-11-28T09:45:10.201Z,9.418366
2022-11-28T09:46:10.238Z,9.418200
2022-11-28T09:47:10.185Z,9.418208
2022-11-28T09:48:10.173Z,9.418287
2022-11-28T09:49:10.168Z,9.418312
2022-11-28T09:50:10.165Z,9.418210
2022-11-28T09:51:10.156Z,9.418200
2022-11-28T09:52:10.249Z,9.418286
2022-11-28T09:53:10.198Z,9.418288
2022-11-28T09:54:10.152Z,9.418302
2022-11-28T09:55:10.129Z,9.418247
2022-11-28T09:56:10.124Z,9.418251
2022-11-28T09:57:10.124Z,9.418230
2022-11-28T09:58:10.117Z,9.418324
2022-11-28T09:59:10.116Z,9.418320
2022-11-28T10:00:10.105Z,9.418252
2022-11-28T10:01:10.096Z,9.418388
2022-11-28T10:02:10.101Z,9.418469
2022-11-28T10:03:10.156Z,9.418187
2022-11-28T10:04:10.204Z,9.418282
2022-11-28T10:05:10.193Z,9.418335
2022-11-28T10:06:10.061Z,9.418357
2022-11-28T10:07:10.049Z,9.418344
2022-11-28T10:08:10.109Z,9.418295
2022-11-28T10:09:10.045Z,9.418306
2022-11-28T10:10:10.060Z,9.418300
2022-11-28T10:11:10.924Z,9.418254
2022-11-28T10:12:10.019Z,9.418290
2022-11-28T10:13:10.012Z,9.418431
2022-11-28T10:14:10.021Z,9.418345
2022-11-28T10:15:10.004Z,9.418263
2022-11-28T10:16:10.027Z,9.418267
2022-11-28T10:17:10.155Z,9.418260
2022-11-28T10:18:09.976Z,9.418308
2022-11-28T10:19:25.610Z,9.418325
2022-11-28T10:20:11.989Z,9.418270
2022-11-28T10:21:09.978Z,9.418262
2022-11-28T10:22:09.964Z,9.418322
2022-11-28T10:23:09.952Z,9.418501
2022-11-28T10:24:09.945Z,9.418530
2022-11-28T10:25:09.934Z,9.418386
2022-11-28T10:26:09.925Z,9.418324
2022-11-28T10:27:09.949Z,9.418350
2022-11-28T10:28:09.917Z,9.418265
2022-11-28T10:29:09.913Z,9.418306
2022-11-28T10:30:09.906Z,9.418329
2022-11-28T10:31:09.916Z,9.418241
2022-11-28T10:32:09.900Z,9.418282
2022-11-28T10:33:09.888Z,9.418324
2022-11-28T10:34:09.881Z,9.418227
2022-11-28T10:35:09.869Z,9.418215
2022-11-28T10:36:09.861Z,9.418258
2022-11-28T10:37:09.861Z,9.418282
2022-11-28T10:38:09.852Z,9.418324
2022-11-28T10:39:11.213Z,9.418248
2022-11-28T10:40:10.837Z,9.418280
2022-11-28T10:41:09.832Z,9.418242
2022-11-28T10:42:09.828Z,9.418237
2022-11-28T10:43:09.824Z,9.418322
2022-11-28T10:44:09.816Z,9.418250
2022-11-28T10:45:09.808Z,9.418231
2022-11-28T10:46:09.896Z,9.418252
2022-11-28T10:47:09.793Z,9.418224
2022-11-28T10:48:37.885Z,9.418280
2022-11-28T10:49:11.780Z,9.418253
2022-11-28T10:50:09.764Z,9.418283
2022-11-28T10:51:09.774Z,9.418235
2022-11-28T10:52:09.749Z,9.418215
2022-11-28T10:53:09.749Z,9.418282
2022-11-28T10:54:09.745Z,9.418241
2022-11-28T10:55:09.761Z,9.418244
2022-11-28T10:56:11.594Z,9.418262
2022-11-28T10:57:10.745Z,9.418258
2022-11-28T10:58:09.715Z,9.418279
2022-11-28T10:59:09.713Z,9.418264
2022-11-28T11:00:09.704Z,9.418213
2022-11-28T11:01:09.755Z,9.418201
2022-11-28T11:02:09.697Z,9.418216
2022-11-28T11:03:09.689Z,9.418272
2022-11-28T11:04:09.712Z,9.418303
2022-11-28T11:05:09.680Z,9.418342
2022-11-28T11:06:09.659Z,9.418389
2022-11-28T11:07:14.895Z,9.418318
2022-11-28T11:08:10.718Z,9.418282
2022-11-28T11:09:09.637Z,9.418261
2022-11-28T11:10:09.627Z,9.418319
2022-11-28T11:11:09.795Z,9.418320
2022-11-28T11:12:09.641Z,9.418308
2022-11-28T11:13:09.625Z,9.418275
2022-11-28T11:14:09.609Z,9.418280
2022-11-28T11:15:09.609Z,9.418369
2022-11-28T11:16:09.629Z,9.418393
2022-11-28T11:17:09.585Z,9.418311
2022-11-28T11:18:09.626Z,9.418365
2022-11-28T11:19:09.573Z,9.418406
2022-11-28T11:20:09.569Z,9.418424
2022-11-28T11:21:09.581Z,9.418270
2022-11-28T11:22:09.546Z,9.418309
2022-11-28T11:23:09.561Z,9.418331
2022-11-28T11:24:09.565Z,9.418276
2022-11-28T11:25:09.543Z,9.418268
2022-11-28T11:26:09.526Z,9.418351
2022-11-28T11:27:09.528Z,9.418329
2022-11-28T11:28:09.534Z,9.418475
2022-11-28T11:29:09.515Z,9.418480
2022-11-28T11:30:09.509Z,9.418395
2022-11-28T11:31:09.591Z,9.418429
2022-11-28T11:32:09.507Z,9.418388
2022-11-28T11:33:09.518Z,9.418342
2022-11-28T11:34:09.485Z,9.418220
2022-11-28T11:35:09.474Z,9.418213
2022-11-28T11:36:09.477Z,9.418149
2022-11-28T11:37:09.465Z,9.418225
2022-11-28T11:38:09.462Z,9.418379
2022-11-28T11:39:09.465Z,9.418378
2022-11-28T11:40:09.446Z,9.418357
2022-11-28T11:41:09.447Z,9.418389
2022-11-28T11:42:09.430Z,9.418367
2022-11-28T11:43:09.417Z,9.418347
2022-11-28T11:44:09.441Z,9.418489